createdAt,value
2023-02-18T00:01:32.178Z,10.60
2023-02-18T00:04:01.093Z,10.70
2023-02-18T00:06:34.606Z,10.70
2023-02-18T00:09:04.315Z,10.60
2023-02-18T00:11:35.126Z,10.70
2023-02-18T00:14:06.196Z,10.60
2023-02-18T00:16:33.406Z,10.60
2023-02-18T00:19:07.967Z,10.60
2023-02-18T00:21:36.593Z,10.60
2023-02-18T00:24:05.931Z,10.70
2023-02-18T00:26:34.242Z,10.70
2023-02-18T00:29:03.260Z,10.70
2023-02-18T00:31:35.642Z,10.70
2023-02-18T00:34:04.972Z,10.70
2023-02-18T00:36:32.243Z,10.70
2023-02-18T00:39:03.714Z,10.80
2023-02-18T00:41:31.748Z,10.70
2023-02-18T00:43:59.028Z,10.80
2023-02-18T00:46:27.389Z,10.80
2023-02-18T00:48:55.408Z,10.80
2023-02-18T00:51:23.937Z,10.80
2023-02-18T00:53:51.365Z,10.80
2023-02-18T00:56:18.609Z,10.80
2023-02-18T00:58:45.686Z,10.80
2023-02-18T01:01:13.779Z,10.70
2023-02-18T01:03:43.072Z,10.70
2023-02-18T01:06:11.807Z,10.70
2023-02-18T01:08:40.723Z,10.70
2023-02-18T01:11:10.100Z,10.60
2023-02-18T01:13:37.966Z,10.60
2023-02-18T01:16:05.417Z,10.60
2023-02-18T01:18:32.862Z,10.50
2023-02-18T01:21:00.958Z,10.50
2023-02-18T01:23:28.594Z,10.50
2023-02-18T01:25:58.544Z,10.50
2023-02-18T01:28:26.049Z,10.40
2023-02-18T01:30:54.439Z,10.40
2023-02-18T01:33:22.546Z,10.50
2023-02-18T01:35:49.912Z,10.40
2023-02-18T01:38:17.179Z,10.40
2023-02-18T01:40:53.699Z,10.40
2023-02-18T01:43:22.624Z,10.40
2023-02-18T01:46:21.795Z,10.50
2023-02-18T01:48:59.031Z,10.40
2023-02-18T01:51:27.769Z,10.40
2023-02-18T01:53:54.760Z,10.40
2023-02-18T01:56:53.968Z,10.30
2023-02-18T01:59:32.175Z,10.40
2023-02-18T02:02:00.013Z,10.40
2023-02-18T02:04:27.411Z,10.40
2023-02-18T02:06:54.891Z,10.40
2023-02-18T02:09:26.285Z,10.40
2023-02-18T02:12:31.618Z,10.40
2023-02-18T02:15:31.097Z,10.40
2023-02-18T02:18:08.983Z,10.30
2023-02-18T02:21:32.939Z,10.30
2023-02-18T02:25:07.183Z,10.40
2023-02-18T02:28:04.782Z,10.30
2023-02-18T02:31:01.189Z,10.30
2023-02-18T02:34:04.076Z,10.30
2023-02-18T02:36:58.323Z,10.30
2023-02-18T02:39:45.806Z,10.40
2023-02-18T02:42:46.591Z,10.40
2023-02-18T02:45:51.713Z,10.50
2023-02-18T02:49:09.887Z,10.50
2023-02-18T02:52:04.156Z,10.50
2023-02-18T02:54:31.685Z,10.50
2023-02-18T02:57:31.014Z,10.50
2023-02-18T03:00:06.572Z,10.70
2023-02-18T03:03:14.710Z,10.70
2023-02-18T03:06:25.479Z,10.70
2023-02-18T03:09:22.969Z,10.70
2023-02-18T03:12:06.345Z,10.70
2023-02-18T03:15:05.073Z,10.80
2023-02-18T03:17:44.902Z,10.80
2023-02-18T03:20:31.374Z,10.80
2023-02-18T03:23:02.206Z,10.80
2023-02-18T03:25:32.294Z,10.80
2023-02-18T03:28:20.467Z,10.80
2023-02-18T03:30:59.908Z,10.80
2023-02-18T03:33:35.450Z,10.80
2023-02-18T03:36:03.165Z,10.80
2023-02-18T03:38:39.462Z,10.70
2023-02-18T03:41:07.110Z,10.70
2023-02-18T03:43:34.500Z,10.70
2023-02-18T03:46:04.338Z,10.70
2023-02-18T03:48:31.536Z,10.80
2023-02-18T03:50:58.588Z,10.80
2023-02-18T03:53:25.726Z,10.80
2023-02-18T03:55:52.868Z,10.70
2023-02-18T03:58:19.986Z,10.70
2023-02-18T04:00:47.119Z,10.70
2023-02-18T04:03:14.342Z,10.70
2023-02-18T04:05:41.519Z,10.80
2023-02-18T04:08:08.626Z,10.80
2023-02-18T04:10:35.778Z,10.80
2023-02-18T04:13:03.028Z,10.80
2023-02-18T04:15:30.528Z,10.80
2023-02-18T04:17:57.778Z,10.80
2023-02-18T04:20:24.841Z,10.80
2023-02-18T04:22:51.939Z,10.80
2023-02-18T04:25:19.230Z,10.90
2023-02-18T04:27:46.406Z,10.90
2023-02-18T04:30:14.434Z,10.90
2023-02-18T04:32:41.607Z,10.90
2023-02-18T04:35:08.844Z,10.90
2023-02-18T04:37:35.958Z,10.80
2023-02-18T04:40:03.292Z,10.80
2023-02-18T04:42:31.518Z,10.80
2023-02-18T04:44:58.846Z,10.80
2023-02-18T04:47:26.094Z,10.80
2023-02-18T04:49:53.208Z,10.80
2023-02-18T04:52:20.446Z,10.90
2023-02-18T04:54:47.661Z,10.90
2023-02-18T04:57:15.096Z,10.80
2023-02-18T04:59:44.679Z,10.80
2023-02-18T05:02:11.806Z,10.80
2023-02-18T05:04:38.917Z,10.90
2023-02-18T05:07:06.029Z,10.80
2023-02-18T05:09:33.657Z,10.80
2023-02-18T05:12:00.797Z,10.80
2023-02-18T05:14:27.943Z,10.80
2023-02-18T05:16:55.110Z,10.80
2023-02-18T05:19:22.167Z,10.90
2023-02-18T05:21:49.275Z,11.00
2023-02-18T05:24:16.428Z,10.90
2023-02-18T05:26:43.672Z,10.90
2023-02-18T05:29:10.835Z,10.90
2023-02-18T05:31:38.716Z,10.80
2023-02-18T05:34:05.889Z,10.80
2023-02-18T05:36:33.115Z,10.90
2023-02-18T05:39:00.341Z,10.90
2023-02-18T05:41:27.460Z,10.90
2023-02-18T05:44:14.298Z,10.80
2023-02-18T05:46:41.445Z,10.90
2023-02-18T05:49:08.568Z,10.80
2023-02-18T05:51:35.692Z,10.90
2023-02-18T05:54:02.798Z,10.90
2023-02-18T05:56:30.104Z,10.80
2023-02-18T05:58:57.289Z,10.90
2023-02-18T06:01:24.365Z,10.90
2023-02-18T06:03:51.499Z,10.90
2023-02-18T06:06:18.645Z,11.00
2023-02-18T06:08:45.709Z,10.90
2023-02-18T06:11:12.799Z,10.90
2023-02-18T06:13:39.919Z,10.90
2023-02-18T06:16:07.610Z,10.90
2023-02-18T06:18:35.080Z,10.80
2023-02-18T06:21:02.211Z,10.80
2023-02-18T06:23:29.406Z,10.80
2023-02-18T06:25:56.574Z,10.70
2023-02-18T06:28:23.762Z,10.80
2023-02-18T06:30:51.269Z,10.80
2023-02-18T06:33:18.475Z,11.00
2023-02-18T06:36:01.823Z,11.00
2023-02-18T06:38:30.464Z,10.90
2023-02-18T06:40:57.546Z,10.80
2023-02-18T06:43:24.649Z,10.80
2023-02-18T06:45:52.291Z,10.70
2023-02-18T06:48:19.521Z,10.80
2023-02-18T06:50:46.719Z,10.80
2023-02-18T06:53:13.844Z,10.80
2023-02-18T06:55:41.914Z,10.80
2023-02-18T06:58:11.165Z,10.80
2023-02-18T07:00:38.612Z,10.90
2023-02-18T07:03:06.027Z,10.90
2023-02-18T07:05:33.259Z,10.90
2023-02-18T07:08:00.414Z,10.80
2023-02-18T07:10:27.555Z,10.80
2023-02-18T07:12:54.661Z,10.80
2023-02-18T07:15:24.429Z,10.80
2023-02-18T07:17:52.334Z,10.80
2023-02-18T07:20:21.156Z,10.80
2023-02-18T07:22:48.791Z,10.70
2023-02-18T07:25:16.930Z,10.80
2023-02-18T07:27:45.727Z,10.80
2023-02-18T07:30:14.063Z,10.80
2023-02-18T07:32:41.181Z,10.80
2023-02-18T07:35:08.615Z,11.00
2023-02-18T07:37:35.658Z,11.10
2023-02-18T07:40:02.956Z,11.10
2023-02-18T07:42:30.254Z,11.20
2023-02-18T07:44:57.391Z,11.20
2023-02-18T07:47:24.459Z,11.20
2023-02-18T07:49:51.612Z,11.30
2023-02-18T07:52:18.661Z,11.30
2023-02-18T07:54:46.062Z,11.30
2023-02-18T07:57:14.318Z,11.30
2023-02-18T08:02:31.886Z,11.40
2023-02-18T08:04:58.957Z,11.40
2023-02-18T08:07:26.010Z,11.50
2023-02-18T08:09:53.117Z,11.50
2023-02-18T08:12:20.183Z,11.40
2023-02-18T08:14:47.312Z,11.40
2023-02-18T08:17:14.466Z,11.50
2023-02-18T08:19:41.548Z,11.40
2023-02-18T08:22:09.261Z,11.50
2023-02-18T08:24:36.405Z,11.50
2023-02-18T08:27:03.649Z,11.50
2023-02-18T08:29:30.867Z,11.50
2023-02-18T08:31:59.053Z,11.60
2023-02-18T08:34:26.614Z,11.70
2023-02-18T08:36:53.673Z,11.80
2023-02-18T08:39:20.801Z,11.80
2023-02-18T08:41:47.899Z,11.80
2023-02-18T08:44:15.213Z,11.80
2023-02-18T08:46:44.420Z,11.70
2023-02-18T08:49:11.537Z,11.70
2023-02-18T08:51:38.658Z,11.60
2023-02-18T08:54:07.056Z,11.60
2023-02-18T08:56:34.233Z,11.70
2023-02-18T08:59:01.334Z,11.70
2023-02-18T09:01:28.787Z,11.80
2023-02-18T09:03:58.060Z,11.80
2023-02-18T09:06:26.616Z,11.80
2023-02-18T09:08:54.117Z,11.90
2023-02-18T09:11:21.275Z,11.80
2023-02-18T09:13:48.357Z,11.70
2023-02-18T09:16:18.750Z,11.80
2023-02-18T09:18:47.676Z,11.80
2023-02-18T09:21:16.913Z,11.80
2023-02-18T09:23:44.060Z,11.80
2023-02-18T09:26:17.010Z,11.90
2023-02-18T09:28:44.576Z,11.70
2023-02-18T09:31:16.589Z,11.90
2023-02-18T09:33:51.405Z,11.80
2023-02-18T09:36:20.714Z,11.90
2023-02-18T09:38:48.045Z,11.80
2023-02-18T09:41:42.512Z,11.80
2023-02-18T09:44:35.404Z,11.90
2023-02-18T09:47:32.364Z,11.80
2023-02-18T09:50:24.874Z,11.70
2023-02-18T09:52:53.085Z,11.70
2023-02-18T09:58:31.007Z,11.70
2023-02-18T10:01:29.804Z,11.60
2023-02-18T10:04:27.678Z,11.70
2023-02-18T10:06:55.218Z,11.70
2023-02-18T10:09:41.954Z,11.60
2023-02-18T10:12:22.127Z,11.70
2023-02-18T10:15:00.080Z,11.70
2023-02-18T10:17:31.225Z,11.70
2023-02-18T10:20:01.491Z,11.70
2023-02-18T10:22:30.960Z,11.80
2023-02-18T10:25:01.340Z,11.80
2023-02-18T10:27:33.824Z,11.80
2023-02-18T10:30:29.756Z,11.80
2023-02-18T10:33:30.946Z,11.80
2023-02-18T10:36:08.138Z,11.80
2023-02-18T10:39:03.876Z,11.80
2023-02-18T10:41:50.516Z,11.70
2023-02-18T10:44:47.622Z,11.70
2023-02-18T10:47:42.575Z,11.60
2023-02-18T10:50:29.569Z,11.70
2023-02-18T10:53:02.933Z,11.70
2023-02-18T10:55:46.549Z,11.70
2023-02-18T10:58:35.210Z,11.70
2023-02-18T11:01:08.927Z,11.80
2023-02-18T11:03:52.180Z,11.80
2023-02-18T11:06:34.626Z,11.70
2023-02-18T11:09:02.768Z,11.70
2023-02-18T11:11:34.805Z,11.80
2023-02-18T11:14:04.834Z,11.80
2023-02-18T11:16:45.301Z,11.90
2023-02-18T11:19:32.187Z,11.80
2023-02-18T11:22:37.012Z,11.80
2023-02-18T11:25:40.331Z,11.90
2023-02-18T11:28:13.243Z,11.90
2023-02-18T11:30:43.981Z,12.00
2023-02-18T11:33:24.154Z,12.00
2023-02-18T11:35:54.436Z,12.10
2023-02-18T11:38:52.757Z,12.20
2023-02-18T11:41:43.674Z,12.20
2023-02-18T11:44:29.635Z,12.20
2023-02-18T11:47:03.978Z,12.20
2023-02-18T11:49:34.142Z,12.30
2023-02-18T11:52:26.558Z,12.30
2023-02-18T11:55:17.706Z,12.40
2023-02-18T11:58:08.727Z,12.40
2023-02-18T12:00:48.613Z,12.40
2023-02-18T12:03:54.233Z,12.40
2023-02-18T12:06:32.476Z,12.30
2023-02-18T12:09:14.840Z,12.20
2023-02-18T12:11:51.640Z,12.20
2023-02-18T12:14:24.370Z,12.30
2023-02-18T12:17:06.972Z,12.30
2023-02-18T12:19:49.184Z,12.30
2023-02-18T12:22:35.293Z,12.30
2023-02-18T12:25:33.486Z,12.10
2023-02-18T12:28:26.792Z,12.10
2023-02-18T12:31:02.532Z,12.10
2023-02-18T12:33:44.794Z,12.10
2023-02-18T12:36:49.337Z,12.00
2023-02-18T12:40:10.166Z,12.10
2023-02-18T12:42:52.094Z,12.10
2023-02-18T12:46:21.924Z,12.10
2023-02-18T12:49:00.742Z,12.10
2023-02-18T12:51:54.293Z,12.10
2023-02-18T12:54:30.299Z,12.20
2023-02-18T12:57:45.655Z,12.10
2023-02-18T13:01:05.599Z,12.20
2023-02-18T13:04:27.607Z,12.20
2023-02-18T13:06:57.487Z,12.10
2023-02-18T13:10:08.063Z,12.20
2023-02-18T13:12:59.918Z,12.20
2023-02-18T13:16:11.555Z,12.20
2023-02-18T13:18:45.336Z,12.20
2023-02-18T13:21:17.237Z,12.20
2023-02-18T13:24:10.223Z,12.20
2023-02-18T13:26:37.920Z,12.20
2023-02-18T13:29:22.849Z,12.30
2023-02-18T13:32:25.701Z,12.30
2023-02-18T13:34:58.209Z,12.30
2023-02-18T13:37:53.593Z,12.40
2023-02-18T13:40:30.252Z,12.30
2023-02-18T13:43:33.303Z,12.30
2023-02-18T13:46:19.489Z,12.30
2023-02-18T13:48:54.082Z,12.30
2023-02-18T13:51:42.404Z,12.20
2023-02-18T13:54:13.246Z,12.30
2023-02-18T13:56:57.259Z,12.30
2023-02-18T13:59:38.552Z,12.30
2023-02-18T14:02:36.337Z,12.40
2023-02-18T14:05:09.609Z,12.30
2023-02-18T14:07:36.752Z,12.30
2023-02-18T14:10:07.047Z,12.30
2023-02-18T14:12:42.875Z,12.20
2023-02-18T14:15:19.240Z,12.20
2023-02-18T14:18:14.088Z,12.20
2023-02-18T14:20:41.161Z,12.20
2023-02-18T14:23:23.076Z,12.20
2023-02-18T14:25:59.112Z,12.10
2023-02-18T14:28:36.238Z,12.10
2023-02-18T14:31:15.021Z,12.00
2023-02-18T14:34:12.584Z,12.00
2023-02-18T14:37:04.223Z,11.90
2023-02-18T14:40:14.637Z,11.80
2023-02-18T14:42:51.479Z,11.80
2023-02-18T14:45:34.422Z,11.80
2023-02-18T14:48:45.746Z,11.80
2023-02-18T14:51:22.304Z,11.80
2023-02-18T14:53:49.743Z,11.70
2023-02-18T14:56:20.773Z,11.80
2023-02-18T14:59:02.301Z,11.80
2023-02-18T15:01:34.547Z,11.80
2023-02-18T15:04:03.196Z,11.80
2023-02-18T15:06:37.247Z,11.70
2023-02-18T15:09:18.150Z,11.70
2023-02-18T15:11:51.678Z,11.70
2023-02-18T15:14:26.818Z,11.70
2023-02-18T15:16:54.422Z,11.70
2023-02-18T15:19:26.456Z,11.70
2023-02-18T15:21:58.333Z,11.70
2023-02-18T15:24:38.108Z,11.70
2023-02-18T15:27:17.736Z,11.60
2023-02-18T15:29:45.210Z,11.50
2023-02-18T15:32:21.904Z,11.20
2023-02-18T15:34:54.804Z,10.90
2023-02-18T15:37:22.344Z,10.60
2023-02-18T15:39:50.074Z,10.40
2023-02-18T15:42:36.500Z,10.40
2023-02-18T15:45:25.141Z,10.20
2023-02-18T15:47:55.891Z,10.00
2023-02-18T15:50:33.850Z,9.80
2023-02-18T15:53:10.330Z,9.70
2023-02-18T15:55:41.208Z,9.50
2023-02-18T15:58:12.751Z,9.40
2023-02-18T16:00:47.953Z,9.30
2023-02-18T16:03:29.865Z,9.30
2023-02-18T16:06:31.078Z,9.30
2023-02-18T16:09:14.605Z,9.30
2023-02-18T16:11:59.749Z,9.50
2023-02-18T16:14:37.074Z,9.70
2023-02-18T16:17:16.102Z,9.90
2023-02-18T16:20:30.660Z,10.00
2023-02-18T16:23:03.540Z,10.10
2023-02-18T16:25:49.275Z,10.20
2023-02-18T16:28:25.236Z,10.30
2023-02-18T16:30:52.384Z,10.40
2023-02-18T16:33:19.553Z,10.40
2023-02-18T16:35:50.350Z,10.40
2023-02-18T16:38:24.861Z,10.50
2023-02-18T16:40:54.895Z,10.50
2023-02-18T16:43:27.048Z,10.50
2023-02-18T16:45:59.146Z,10.30
2023-02-18T16:48:34.820Z,10.30
2023-02-18T16:51:07.783Z,10.20
2023-02-18T16:53:35.002Z,10.30
2023-02-18T16:56:02.999Z,10.30
2023-02-18T16:58:30.288Z,10.30
2023-02-18T17:00:58.083Z,10.40
2023-02-18T17:03:25.256Z,10.40
2023-02-18T17:05:52.409Z,10.40
2023-02-18T17:08:26.739Z,10.40
2023-02-18T17:10:58.782Z,10.40
2023-02-18T17:13:29.348Z,10.40
2023-02-18T17:15:58.842Z,10.40
2023-02-18T17:18:26.559Z,10.40
2023-02-18T17:20:54.490Z,10.40
2023-02-18T17:23:24.139Z,10.40
2023-02-18T17:25:53.207Z,10.40
2023-02-18T17:28:20.637Z,10.40
2023-02-18T17:30:56.692Z,10.30
2023-02-18T17:33:25.352Z,10.20
2023-02-18T17:35:52.645Z,10.20
2023-02-18T17:38:20.299Z,10.20
2023-02-18T17:40:50.702Z,10.20
2023-02-18T17:43:19.254Z,10.20
2023-02-18T17:45:54.501Z,10.20
2023-02-18T17:48:21.851Z,10.20
2023-02-18T17:50:49.026Z,10.20
2023-02-18T17:53:18.745Z,10.20
2023-02-18T17:55:47.675Z,10.20
2023-02-18T17:58:16.449Z,10.20
2023-02-18T18:00:51.675Z,10.20
2023-02-18T18:03:19.882Z,10.20
2023-02-18T18:05:49.670Z,10.20
2023-02-18T18:08:17.105Z,10.10
2023-02-18T18:10:58.887Z,10.10
2023-02-18T18:13:29.649Z,10.10
2023-02-18T18:15:58.061Z,10.10
2023-02-18T18:18:26.797Z,10.10
2023-02-18T18:20:59.235Z,10.10
2023-02-18T18:23:26.488Z,10.00
2023-02-18T18:25:58.261Z,10.00
2023-02-18T18:28:26.917Z,9.90
2023-02-18T18:30:56.409Z,9.80
2023-02-18T18:33:32.346Z,9.80
2023-02-18T18:36:01.153Z,9.70
2023-02-18T18:38:29.632Z,9.70
2023-02-18T18:40:57.004Z,9.70
2023-02-18T18:43:33.152Z,9.70
2023-02-18T18:46:00.966Z,9.70
2023-02-18T18:48:28.157Z,9.70
2023-02-18T18:50:55.688Z,9.80
2023-02-18T18:53:26.903Z,9.80
2023-02-18T18:56:01.230Z,9.90
2023-02-18T18:58:28.746Z,9.80
2023-02-18T19:00:59.794Z,9.80
2023-02-18T19:03:29.117Z,9.80
2023-02-18T19:05:56.746Z,9.80
2023-02-18T19:08:23.998Z,9.80
2023-02-18T19:10:55.141Z,9.80
2023-02-18T19:13:29.116Z,9.70
2023-02-18T19:16:36.277Z,9.70
2023-02-18T19:19:03.466Z,9.60
2023-02-18T19:21:31.802Z,9.60
2023-02-18T19:23:59.950Z,9.60
2023-02-18T19:26:28.300Z,9.60
2023-02-18T19:28:55.477Z,9.60
2023-02-18T19:31:24.510Z,9.60
2023-02-18T19:33:52.397Z,9.60
2023-02-18T19:36:19.750Z,9.60
2023-02-18T19:38:47.045Z,9.70
2023-02-18T19:41:17.041Z,9.70
2023-02-18T19:43:49.227Z,9.70
2023-02-18T19:46:18.708Z,9.70
2023-02-18T19:48:52.767Z,9.70
2023-02-18T19:51:21.548Z,9.60
2023-02-18T19:53:48.843Z,9.60
2023-02-18T19:56:18.876Z,9.60
2023-02-18T19:58:47.268Z,9.60
2023-02-18T20:01:18.449Z,9.60
2023-02-18T20:03:47.290Z,9.70
2023-02-18T20:06:20.517Z,9.60
2023-02-18T20:08:48.979Z,9.60
2023-02-18T20:11:17.351Z,9.60
2023-02-18T20:13:44.673Z,9.60
2023-02-18T20:16:12.390Z,9.60
2023-02-18T20:18:39.592Z,9.60
2023-02-18T20:21:10.623Z,9.70
2023-02-18T20:23:37.942Z,9.70
2023-02-18T20:26:10.059Z,9.60
2023-02-18T20:28:37.614Z,9.70
2023-02-18T20:31:14.054Z,9.80
2023-02-18T20:33:45.169Z,9.70
2023-02-18T20:36:14.287Z,9.70
2023-02-18T20:38:41.670Z,9.70
2023-02-18T20:41:14.430Z,9.70
2023-02-18T20:43:43.400Z,9.70
2023-02-18T20:46:21.262Z,9.70
2023-02-18T20:48:48.468Z,9.70
2023-02-18T20:51:18.971Z,9.60
2023-02-18T20:53:48.588Z,9.70
2023-02-18T20:56:16.838Z,9.60
2023-02-18T20:58:46.317Z,9.60
2023-02-18T21:01:17.146Z,9.60
2023-02-18T21:03:48.458Z,9.60
2023-02-18T21:06:19.753Z,9.70
2023-02-18T21:08:52.693Z,9.50
2023-02-18T21:11:23.463Z,9.50
2023-02-18T21:13:53.147Z,9.50
2023-02-18T21:16:22.406Z,9.60
2023-02-18T21:18:49.875Z,9.50
2023-02-18T21:21:17.548Z,9.50
2023-02-18T21:23:44.832Z,9.50
2023-02-18T21:26:16.229Z,9.50
2023-02-18T21:28:48.073Z,9.50
2023-02-18T21:31:35.694Z,9.50
2023-02-18T21:34:04.582Z,9.60
2023-02-18T21:36:33.172Z,9.60
2023-02-18T21:39:03.709Z,9.60
2023-02-18T21:41:31.127Z,9.60
2023-02-18T21:43:58.737Z,9.60
2023-02-18T21:46:29.301Z,9.50
2023-02-18T21:49:03.276Z,9.40
2023-02-18T21:51:55.865Z,9.40
2023-02-18T21:54:38.561Z,9.30
2023-02-18T21:57:16.064Z,9.40
2023-02-18T21:59:45.258Z,9.40
2023-02-18T22:02:22.068Z,9.30
2023-02-18T22:04:50.774Z,9.30
2023-02-18T22:07:20.604Z,9.30
2023-02-18T22:09:48.980Z,9.30
2023-02-18T22:12:17.039Z,9.30
2023-02-18T22:14:44.488Z,9.30
2023-02-18T22:17:12.248Z,9.30
2023-02-18T22:19:39.770Z,9.30
2023-02-18T22:22:06.876Z,9.30
2023-02-18T22:24:34.426Z,9.30
2023-02-18T22:27:02.003Z,9.30
2023-02-18T22:29:31.077Z,9.30
2023-02-18T22:31:58.407Z,9.30
2023-02-18T22:34:26.547Z,9.30
2023-02-18T22:36:53.624Z,9.40
2023-02-18T22:39:20.897Z,9.30
2023-02-18T22:41:49.346Z,9.40
2023-02-18T22:44:17.712Z,9.40
2023-02-18T22:46:45.633Z,9.40
2023-02-18T22:49:13.246Z,9.40
2023-02-18T22:51:43.682Z,9.40
2023-02-18T22:54:16.270Z,9.40
2023-02-18T22:56:45.520Z,9.40
2023-02-18T22:59:14.864Z,9.50
2023-02-18T23:01:49.419Z,9.40
2023-02-18T23:04:19.052Z,9.40
2023-02-18T23:06:48.369Z,9.40
2023-02-18T23:09:23.458Z,9.40
2023-02-18T23:11:57.586Z,9.40
2023-02-18T23:14:28.177Z,9.40
2023-02-18T23:17:14.713Z,9.40
2023-02-18T23:19:48.845Z,9.40
2023-02-18T23:22:20.609Z,9.40
2023-02-18T23:24:49.680Z,9.40
2023-02-18T23:27:17.950Z,9.30
2023-02-18T23:29:45.286Z,9.30
2023-02-18T23:32:13.055Z,9.30
2023-02-18T23:34:40.362Z,9.30
2023-02-18T23:37:07.679Z,9.30
2023-02-18T23:39:34.914Z,9.30
2023-02-18T23:42:01.974Z,9.30
2023-02-18T23:44:29.441Z,9.20
2023-02-18T23:46:56.601Z,9.20
2023-02-18T23:49:26.428Z,9.20
2023-02-18T23:51:56.346Z,9.20
2023-02-18T23:54:24.268Z,9.10
2023-02-18T23:56:51.405Z,9.00
2023-02-18T23:59:18.783Z,9.00
